sensor_id;sensor_type;location;lat;lon;timestamp;temperature;humidity
21778;DHT22;11050;52.222;20.916;2023-03-25T00:00:56;10.20;99.90
21778;DHT22;11050;52.222;20.916;2023-03-25T00:03:27;10.20;99.90
21778;DHT22;11050;52.222;20.916;2023-03-25T00:05:55;10.20;99.90
21778;DHT22;11050;52.222;20.916;2023-03-25T00:08:25;10.20;99.90
21778;DHT22;11050;52.222;20.916;2023-03-25T00:10:53;10.20;99.90
21778;DHT22;11050;52.222;20.916;2023-03-25T00:13:21;10.20;99.90
21778;DHT22;11050;52.222;20.916;2023-03-25T00:15:48;10.20;99.90
21778;DHT22;11050;52.222;20.916;2023-03-25T00:18:19;10.20;99.90
21778;DHT22;11050;52.222;20.916;2023-03-25T00:20:48;10.20;99.90
21778;DHT22;11050;52.222;20.916;2023-03-25T00:23:16;10.20;99.90
21778;DHT22;11050;52.222;20.916;2023-03-25T00:25:43;10.10;99.90
21778;DHT22;11050;52.222;20.916;2023-03-25T00:28:14;10.10;99.90
21778;DHT22;11050;52.222;20.916;2023-03-25T00:30:41;10.10;99.90
21778;DHT22;11050;52.222;20.916;2023-03-25T00:33:09;10.10;99.90
21778;DHT22;11050;52.222;20.916;2023-03-25T00:35:39;10.10;99.90
21778;DHT22;11050;52.222;20.916;2023-03-25T00:38:12;10.10;99.90
21778;DHT22;11050;52.222;20.916;2023-03-25T00:40:39;10.00;99.90
21778;DHT22;11050;52.222;20.916;2023-03-25T00:43:05;10.00;99.90
21778;DHT22;11050;52.222;20.916;2023-03-25T00:45:32;9.90;99.90
21778;DHT22;11050;52.222;20.916;2023-03-25T00:47:59;9.90;99.90
21778;DHT22;11050;52.222;20.916;2023-03-25T00:50:25;9.90;99.90
21778;DHT22;11050;52.222;20.916;2023-03-25T00:52:51;9.80;99.90
21778;DHT22;11050;52.222;20.916;2023-03-25T00:55:18;9.80;99.90
21778;DHT22;11050;52.222;20.916;2023-03-25T00:57:44;9.80;99.90
21778;DHT22;11050;52.222;20.916;2023-03-25T01:00:14;9.70;99.90
21778;DHT22;11050;52.222;20.916;2023-03-25T01:02:42;9.70;99.90
21778;DHT22;11050;52.222;20.916;2023-03-25T01:05:10;9.60;99.90
21778;DHT22;11050;52.222;20.916;2023-03-25T01:07:38;9.50;99.90
21778;DHT22;11050;52.222;20.916;2023-03-25T01:10:06;9.50;99.90
21778;DHT22;11050;52.222;20.916;2023-03-25T01:12:33;9.50;99.90
21778;DHT22;11050;52.222;20.916;2023-03-25T01:14:59;9.40;99.90
21778;DHT22;11050;52.222;20.916;2023-03-25T01:17:25;9.30;99.90
21778;DHT22;11050;52.222;20.916;2023-03-25T01:19:50;9.30;99.90
21778;DHT22;11050;52.222;20.916;2023-03-25T01:22:17;9.20;99.90
21778;DHT22;11050;52.222;20.916;2023-03-25T01:24:43;9.20;99.90
21778;DHT22;11050;52.222;20.916;2023-03-25T01:27:09;9.20;99.90
21778;DHT22;11050;52.222;20.916;2023-03-25T01:29:35;9.10;99.90
21778;DHT22;11050;52.222;20.916;2023-03-25T01:32:01;9.10;99.90
21778;DHT22;11050;52.222;20.916;2023-03-25T01:34:27;9.00;99.90
21778;DHT22;11050;52.222;20.916;2023-03-25T01:36:53;9.00;99.90
21778;DHT22;11050;52.222;20.916;2023-03-25T01:39:20;8.90;99.90
21778;DHT22;11050;52.222;20.916;2023-03-25T01:41:48;8.90;99.90
21778;DHT22;11050;52.222;20.916;2023-03-25T01:46:48;8.80;99.90
21778;DHT22;11050;52.222;20.916;2023-03-25T01:49:40;8.80;99.90
21778;DHT22;11050;52.222;20.916;2023-03-25T01:52:12;8.80;99.90
21778;DHT22;11050;52.222;20.916;2023-03-25T01:54:42;8.70;99.90
21778;DHT22;11050;52.222;20.916;2023-03-25T01:57:12;8.70;99.90
21778;DHT22;11050;52.222;20.916;2023-03-25T01:59:42;8.60;99.90
21778;DHT22;11050;52.222;20.916;2023-03-25T02:02:09;8.60;99.90
21778;DHT22;11050;52.222;20.916;2023-03-25T02:04:54;8.50;99.90
21778;DHT22;11050;52.222;20.916;2023-03-25T02:07:41;8.50;99.90
21778;DHT22;11050;52.222;20.916;2023-03-25T02:10:11;8.50;99.90
21778;DHT22;11050;52.222;20.916;2023-03-25T02:12:38;8.50;99.90
21778;DHT22;11050;52.222;20.916;2023-03-25T02:15:06;8.40;99.90
21778;DHT22;11050;52.222;20.916;2023-03-25T02:27:19;8.20;99.90
21778;DHT22;11050;52.222;20.916;2023-03-25T02:44:39;8.00;99.90
21778;DHT22;11050;52.222;20.916;2023-03-25T02:47:17;8.00;99.90
21778;DHT22;11050;52.222;20.916;2023-03-25T02:49:53;7.90;99.90
21778;DHT22;11050;52.222;20.916;2023-03-25T02:52:30;7.90;99.90
21778;DHT22;11050;52.222;20.916;2023-03-25T02:55:05;7.90;99.90
21778;DHT22;11050;52.222;20.916;2023-03-25T02:57:37;7.90;99.90
21778;DHT22;11050;52.222;20.916;2023-03-25T03:00:09;7.90;99.90
21778;DHT22;11050;52.222;20.916;2023-03-25T03:03:04;7.90;99.90
21778;DHT22;11050;52.222;20.916;2023-03-25T03:05:45;7.90;99.90
21778;DHT22;11050;52.222;20.916;2023-03-25T03:11:30;7.80;99.90
21778;DHT22;11050;52.222;20.916;2023-03-25T03:23:35;7.70;99.90
21778;DHT22;11050;52.222;20.916;2023-03-25T03:26:40;7.60;99.90
21778;DHT22;11050;52.222;20.916;2023-03-25T03:32:15;7.60;99.90
21778;DHT22;11050;52.222;20.916;2023-03-25T03:34:58;7.50;99.90
21778;DHT22;11050;52.222;20.916;2023-03-25T03:37:54;7.50;99.90
21778;DHT22;11050;52.222;20.916;2023-03-25T03:40:27;7.50;99.90
21778;DHT22;11050;52.222;20.916;2023-03-25T03:45:35;7.40;99.90
21778;DHT22;11050;52.222;20.916;2023-03-25T03:48:11;7.40;99.90
21778;DHT22;11050;52.222;20.916;2023-03-25T03:50:46;7.40;99.90
21778;DHT22;11050;52.222;20.916;2023-03-25T03:53:31;7.40;99.90
21778;DHT22;11050;52.222;20.916;2023-03-25T03:56:14;7.30;99.90
21778;DHT22;11050;52.222;20.916;2023-03-25T03:58:47;7.30;99.90
21778;DHT22;11050;52.222;20.916;2023-03-25T04:01:34;7.30;99.90
21778;DHT22;11050;52.222;20.916;2023-03-25T04:04:13;7.30;99.90
21778;DHT22;11050;52.222;20.916;2023-03-25T04:07:04;7.30;99.90
21778;DHT22;11050;52.222;20.916;2023-03-25T04:12:19;7.20;99.90
21778;DHT22;11050;52.222;20.916;2023-03-25T04:14:49;7.20;99.90
21778;DHT22;11050;52.222;20.916;2023-03-25T04:17:15;7.30;99.90
21778;DHT22;11050;52.222;20.916;2023-03-25T04:19:41;7.30;99.90
21778;DHT22;11050;52.222;20.916;2023-03-25T04:22:14;7.30;99.90
21778;DHT22;11050;52.222;20.916;2023-03-25T04:24:43;7.30;99.90
21778;DHT22;11050;52.222;20.916;2023-03-25T04:27:09;7.30;99.90
21778;DHT22;11050;52.222;20.916;2023-03-25T04:29:38;7.30;99.90
21778;DHT22;11050;52.222;20.916;2023-03-25T04:32:10;7.30;99.90
21778;DHT22;11050;52.222;20.916;2023-03-25T04:34:37;7.30;99.90
21778;DHT22;11050;52.222;20.916;2023-03-25T04:37:03;7.30;99.90
21778;DHT22;11050;52.222;20.916;2023-03-25T04:39:29;7.30;99.90
21778;DHT22;11050;52.222;20.916;2023-03-25T04:41:57;7.30;99.90
21778;DHT22;11050;52.222;20.916;2023-03-25T04:44:31;7.30;99.90
21778;DHT22;11050;52.222;20.916;2023-03-25T04:47:05;7.30;99.90
21778;DHT22;11050;52.222;20.916;2023-03-25T04:49:36;7.30;99.90
21778;DHT22;11050;52.222;20.916;2023-03-25T04:52:02;7.30;99.90
21778;DHT22;11050;52.222;20.916;2023-03-25T04:54:28;7.30;99.90
21778;DHT22;11050;52.222;20.916;2023-03-25T04:56:54;7.30;99.90
21778;DHT22;11050;52.222;20.916;2023-03-25T04:59:21;7.30;99.90
21778;DHT22;11050;52.222;20.916;2023-03-25T05:01:47;7.30;99.90
21778;DHT22;11050;52.222;20.916;2023-03-25T05:04:15;7.40;99.90
21778;DHT22;11050;52.222;20.916;2023-03-25T05:06:44;7.40;99.90
21778;DHT22;11050;52.222;20.916;2023-03-25T05:09:13;7.40;99.90
21778;DHT22;11050;52.222;20.916;2023-03-25T05:11:44;7.40;99.90
21778;DHT22;11050;52.222;20.916;2023-03-25T05:14:12;7.50;99.90
21778;DHT22;11050;52.222;20.916;2023-03-25T05:16:39;7.50;99.90
21778;DHT22;11050;52.222;20.916;2023-03-25T05:19:06;7.50;99.90
21778;DHT22;11050;52.222;20.916;2023-03-25T05:21:33;7.50;99.90
21778;DHT22;11050;52.222;20.916;2023-03-25T05:24:03;7.60;99.90
21778;DHT22;11050;52.222;20.916;2023-03-25T05:26:33;7.60;99.90
21778;DHT22;11050;52.222;20.916;2023-03-25T05:29:03;7.60;99.90
21778;DHT22;11050;52.222;20.916;2023-03-25T05:31:33;7.70;99.90
21778;DHT22;11050;52.222;20.916;2023-03-25T05:33:59;7.70;99.90
21778;DHT22;11050;52.222;20.916;2023-03-25T05:36:25;7.70;99.90
21778;DHT22;11050;52.222;20.916;2023-03-25T05:38:53;7.80;99.90
21778;DHT22;11050;52.222;20.916;2023-03-25T05:41:20;7.80;99.90
21778;DHT22;11050;52.222;20.916;2023-03-25T05:43:48;7.80;99.90
21778;DHT22;11050;52.222;20.916;2023-03-25T05:46:18;7.90;99.90
21778;DHT22;11050;52.222;20.916;2023-03-25T05:48:45;7.90;99.90
21778;DHT22;11050;52.222;20.916;2023-03-25T05:51:13;7.90;99.90
21778;DHT22;11050;52.222;20.916;2023-03-25T05:53:45;8.00;99.90
21778;DHT22;11050;52.222;20.916;2023-03-25T05:56:16;8.10;99.90
21778;DHT22;11050;52.222;20.916;2023-03-25T05:58:47;8.10;99.90
21778;DHT22;11050;52.222;20.916;2023-03-25T06:01:14;8.10;99.90
21778;DHT22;11050;52.222;20.916;2023-03-25T06:03:42;8.20;99.90
21778;DHT22;11050;52.222;20.916;2023-03-25T06:06:13;8.20;99.90
21778;DHT22;11050;52.222;20.916;2023-03-25T06:08:47;8.20;99.90
21778;DHT22;11050;52.222;20.916;2023-03-25T06:11:15;8.30;99.90
21778;DHT22;11050;52.222;20.916;2023-03-25T06:13:44;8.40;99.90
21778;DHT22;11050;52.222;20.916;2023-03-25T06:16:22;8.40;99.90
21778;DHT22;11050;52.222;20.916;2023-03-25T06:18:53;8.40;99.90
21778;DHT22;11050;52.222;20.916;2023-03-25T06:21:24;8.50;99.90
21778;DHT22;11050;52.222;20.916;2023-03-25T06:23:52;8.50;99.90
21778;DHT22;11050;52.222;20.916;2023-03-25T06:26:20;8.60;99.90
21778;DHT22;11050;52.222;20.916;2023-03-25T06:28:47;8.60;99.90
21778;DHT22;11050;52.222;20.916;2023-03-25T06:31:19;8.70;99.90
21778;DHT22;11050;52.222;20.916;2023-03-25T06:33:48;8.70;99.90
21778;DHT22;11050;52.222;20.916;2023-03-25T06:36:16;8.80;99.90
21778;DHT22;11050;52.222;20.916;2023-03-25T06:38:47;8.80;99.90
21778;DHT22;11050;52.222;20.916;2023-03-25T06:41:16;8.90;99.90
21778;DHT22;11050;52.222;20.916;2023-03-25T06:43:46;8.90;99.90
21778;DHT22;11050;52.222;20.916;2023-03-25T06:46:13;9.00;99.90
21778;DHT22;11050;52.222;20.916;2023-03-25T06:48:40;9.10;99.90
21778;DHT22;11050;52.222;20.916;2023-03-25T06:51:05;9.10;99.90
21778;DHT22;11050;52.222;20.916;2023-03-25T06:53:31;9.20;99.90
21778;DHT22;11050;52.222;20.916;2023-03-25T06:55:57;9.30;99.90
21778;DHT22;11050;52.222;20.916;2023-03-25T06:58:23;9.30;99.90
21778;DHT22;11050;52.222;20.916;2023-03-25T07:00:55;9.40;99.90
21778;DHT22;11050;52.222;20.916;2023-03-25T07:03:21;9.40;99.90
21778;DHT22;11050;52.222;20.916;2023-03-25T07:05:48;9.50;99.90
21778;DHT22;11050;52.222;20.916;2023-03-25T07:08:14;9.50;99.90
21778;DHT22;11050;52.222;20.916;2023-03-25T07:10:40;9.50;99.90
21778;DHT22;11050;52.222;20.916;2023-03-25T07:13:07;9.50;99.90
21778;DHT22;11050;52.222;20.916;2023-03-25T07:15:34;9.50;99.90
21778;DHT22;11050;52.222;20.916;2023-03-25T07:18:00;9.60;99.90
21778;DHT22;11050;52.222;20.916;2023-03-25T07:20:26;9.60;99.90
21778;DHT22;11050;52.222;20.916;2023-03-25T07:22:53;9.60;99.90
21778;DHT22;11050;52.222;20.916;2023-03-25T07:25:19;9.60;99.90
21778;DHT22;11050;52.222;20.916;2023-03-25T07:27:46;9.70;99.90
21778;DHT22;11050;52.222;20.916;2023-03-25T07:30:12;9.70;99.90
21778;DHT22;11050;52.222;20.916;2023-03-25T07:32:38;9.80;99.90
21778;DHT22;11050;52.222;20.916;2023-03-25T07:35:04;9.80;99.90
21778;DHT22;11050;52.222;20.916;2023-03-25T07:37:31;9.90;99.90
21778;DHT22;11050;52.222;20.916;2023-03-25T07:39:56;9.90;99.90
21778;DHT22;11050;52.222;20.916;2023-03-25T07:42:22;10.00;99.90
21778;DHT22;11050;52.222;20.916;2023-03-25T07:44:48;10.00;99.90
21778;DHT22;11050;52.222;20.916;2023-03-25T07:47:13;10.10;99.90
21778;DHT22;11050;52.222;20.916;2023-03-25T07:49:39;10.10;99.90
21778;DHT22;11050;52.222;20.916;2023-03-25T07:52:06;10.20;99.90
21778;DHT22;11050;52.222;20.916;2023-03-25T07:54:32;10.20;99.90
21778;DHT22;11050;52.222;20.916;2023-03-25T07:56:57;10.20;99.90
21778;DHT22;11050;52.222;20.916;2023-03-25T07:59:23;10.30;99.90
21778;DHT22;11050;52.222;20.916;2023-03-25T08:01:50;10.40;99.90
21778;DHT22;11050;52.222;20.916;2023-03-25T08:04:16;10.40;99.90
21778;DHT22;11050;52.222;20.916;2023-03-25T08:06:41;10.50;99.90
21778;DHT22;11050;52.222;20.916;2023-03-25T08:09:07;10.50;99.90
21778;DHT22;11050;52.222;20.916;2023-03-25T08:11:33;10.60;99.90
21778;DHT22;11050;52.222;20.916;2023-03-25T08:13:59;10.60;99.90
21778;DHT22;11050;52.222;20.916;2023-03-25T08:16:24;10.70;99.90
21778;DHT22;11050;52.222;20.916;2023-03-25T08:18:50;10.90;99.90
21778;DHT22;11050;52.222;20.916;2023-03-25T08:21:18;10.90;99.90
21778;DHT22;11050;52.222;20.916;2023-03-25T08:23:53;11.10;99.90
21778;DHT22;11050;52.222;20.916;2023-03-25T08:26:26;11.20;99.90
21778;DHT22;11050;52.222;20.916;2023-03-25T08:28:53;11.30;99.90
21778;DHT22;11050;52.222;20.916;2023-03-25T08:31:22;11.40;99.90
21778;DHT22;11050;52.222;20.916;2023-03-25T08:33:49;11.40;99.90
21778;DHT22;11050;52.222;20.916;2023-03-25T08:36:15;11.50;99.90
21778;DHT22;11050;52.222;20.916;2023-03-25T08:38:44;11.60;99.90
21778;DHT22;11050;52.222;20.916;2023-03-25T08:41:11;11.60;99.90
21778;DHT22;11050;52.222;20.916;2023-03-25T08:43:38;11.80;99.90
21778;DHT22;11050;52.222;20.916;2023-03-25T08:46:04;11.90;99.90
21778;DHT22;11050;52.222;20.916;2023-03-25T08:48:30;12.00;99.90
21778;DHT22;11050;52.222;20.916;2023-03-25T08:50:56;12.20;99.90
21778;DHT22;11050;52.222;20.916;2023-03-25T08:53:23;12.30;99.90
21778;DHT22;11050;52.222;20.916;2023-03-25T08:55:52;12.50;99.90
21778;DHT22;11050;52.222;20.916;2023-03-25T08:58:19;12.70;99.90
21778;DHT22;11050;52.222;20.916;2023-03-25T09:00:47;12.80;99.90
21778;DHT22;11050;52.222;20.916;2023-03-25T09:03:14;13.00;99.90
21778;DHT22;11050;52.222;20.916;2023-03-25T09:05:40;13.10;99.90
21778;DHT22;11050;52.222;20.916;2023-03-25T09:08:06;13.30;99.90
21778;DHT22;11050;52.222;20.916;2023-03-25T09:10:33;13.50;99.90
21778;DHT22;11050;52.222;20.916;2023-03-25T09:12:58;13.70;99.90
21778;DHT22;11050;52.222;20.916;2023-03-25T09:15:24;13.90;99.90
21778;DHT22;11050;52.222;20.916;2023-03-25T09:17:51;14.10;99.90
21778;DHT22;11050;52.222;20.916;2023-03-25T09:20:16;14.40;99.90
21778;DHT22;11050;52.222;20.916;2023-03-25T09:22:43;14.50;99.90
21778;DHT22;11050;52.222;20.916;2023-03-25T09:25:09;14.70;99.90
21778;DHT22;11050;52.222;20.916;2023-03-25T09:27:35;14.70;99.90
21778;DHT22;11050;52.222;20.916;2023-03-25T09:30:03;14.80;99.90
21778;DHT22;11050;52.222;20.916;2023-03-25T09:32:29;14.70;99.90
21778;DHT22;11050;52.222;20.916;2023-03-25T09:34:55;14.60;99.90
21778;DHT22;11050;52.222;20.916;2023-03-25T09:37:22;14.70;99.90
21778;DHT22;11050;52.222;20.916;2023-03-25T09:39:47;14.70;99.90
21778;DHT22;11050;52.222;20.916;2023-03-25T09:50:38;14.60;99.90
21778;DHT22;11050;52.222;20.916;2023-03-25T09:53:49;14.70;99.90
21778;DHT22;11050;52.222;20.916;2023-03-25T09:56:32;14.70;99.90
21778;DHT22;11050;52.222;20.916;2023-03-25T09:59:21;14.80;99.90
21778;DHT22;11050;52.222;20.916;2023-03-25T10:05:14;14.80;99.90
21778;DHT22;11050;52.222;20.916;2023-03-25T10:08:12;14.80;99.90
21778;DHT22;11050;52.222;20.916;2023-03-25T10:11:05;14.80;99.90
21778;DHT22;11050;52.222;20.916;2023-03-25T10:13:54;14.70;99.90
21778;DHT22;11050;52.222;20.916;2023-03-25T10:25:44;15.10;99.90
21778;DHT22;11050;52.222;20.916;2023-03-25T10:28:18;15.30;99.90
21778;DHT22;11050;52.222;20.916;2023-03-25T10:30:51;15.50;98.90
21778;DHT22;11050;52.222;20.916;2023-03-25T10:33:36;15.60;98.10
21778;DHT22;11050;52.222;20.916;2023-03-25T10:36:11;15.70;97.90
21778;DHT22;11050;52.222;20.916;2023-03-25T10:38:45;15.80;97.00
21778;DHT22;11050;52.222;20.916;2023-03-25T10:44:06;15.80;94.00
21778;DHT22;11050;52.222;20.916;2023-03-25T10:46:45;15.90;94.00
21778;DHT22;11050;52.222;20.916;2023-03-25T10:49:24;15.90;93.20
21778;DHT22;11050;52.222;20.916;2023-03-25T10:51:54;16.10;93.20
21778;DHT22;11050;52.222;20.916;2023-03-25T10:54:28;16.30;91.80
21778;DHT22;11050;52.222;20.916;2023-03-25T10:57:00;16.50;90.10
21778;DHT22;11050;52.222;20.916;2023-03-25T10:59:42;16.50;85.90
21778;DHT22;11050;52.222;20.916;2023-03-25T11:02:21;16.70;85.40
21778;DHT22;11050;52.222;20.916;2023-03-25T11:04:55;16.70;83.40
21778;DHT22;11050;52.222;20.916;2023-03-25T11:07:28;16.50;84.40
21778;DHT22;11050;52.222;20.916;2023-03-25T11:10:24;16.50;85.70
21778;DHT22;11050;52.222;20.916;2023-03-25T11:12:53;16.30;85.80
21778;DHT22;11050;52.222;20.916;2023-03-25T11:15:24;16.30;86.50
21778;DHT22;11050;52.222;20.916;2023-03-25T11:21:08;16.50;87.80
21778;DHT22;11050;52.222;20.916;2023-03-25T11:23:43;16.70;86.60
21778;DHT22;11050;52.222;20.916;2023-03-25T11:26:18;17.00;84.80
21778;DHT22;11050;52.222;20.916;2023-03-25T11:29:17;17.20;79.70
21778;DHT22;11050;52.222;20.916;2023-03-25T11:32:04;17.30;79.50
21778;DHT22;11050;52.222;20.916;2023-03-25T11:34:37;17.50;77.80
21778;DHT22;11050;52.222;20.916;2023-03-25T11:37:18;17.70;76.80
21778;DHT22;11050;52.222;20.916;2023-03-25T11:39:53;17.80;76.10
21778;DHT22;11050;52.222;20.916;2023-03-25T11:42:30;17.90;75.00
21778;DHT22;11050;52.222;20.916;2023-03-25T11:44:59;18.00;73.60
21778;DHT22;11050;52.222;20.916;2023-03-25T11:47:37;18.00;73.50
21778;DHT22;11050;52.222;20.916;2023-03-25T11:50:05;18.10;73.70
21778;DHT22;11050;52.222;20.916;2023-03-25T11:52:44;18.00;73.00
21778;DHT22;11050;52.222;20.916;2023-03-25T11:55:22;17.90;73.70
21778;DHT22;11050;52.222;20.916;2023-03-25T11:57:58;17.70;73.50
21778;DHT22;11050;52.222;20.916;2023-03-25T12:00:38;17.40;73.90
21778;DHT22;11050;52.222;20.916;2023-03-25T12:03:19;17.20;74.80
21778;DHT22;11050;52.222;20.916;2023-03-25T12:08:56;16.60;76.90
21778;DHT22;11050;52.222;20.916;2023-03-25T12:20:19;16.20;79.40
21778;DHT22;11050;52.222;20.916;2023-03-25T12:25:35;17.00;77.40
21778;DHT22;11050;52.222;20.916;2023-03-25T12:43:09;17.50;73.20
21778;DHT22;11050;52.222;20.916;2023-03-25T13:00:14;15.20;91.40
21778;DHT22;11050;52.222;20.916;2023-03-25T13:03:05;14.40;93.30
21778;DHT22;11050;52.222;20.916;2023-03-25T13:08:46;13.40;99.90
21778;DHT22;11050;52.222;20.916;2023-03-25T13:11:17;13.10;99.90
21778;DHT22;11050;52.222;20.916;2023-03-25T13:13:52;12.80;99.90
21778;DHT22;11050;52.222;20.916;2023-03-25T13:16:24;12.70;99.90
21778;DHT22;11050;52.222;20.916;2023-03-25T13:19:13;12.50;99.90
21778;DHT22;11050;52.222;20.916;2023-03-25T13:21:48;12.40;99.90
21778;DHT22;11050;52.222;20.916;2023-03-25T13:24:21;12.40;99.90
21778;DHT22;11050;52.222;20.916;2023-03-25T13:26:55;12.40;99.90
21778;DHT22;11050;52.222;20.916;2023-03-25T13:29:30;12.40;99.90
21778;DHT22;11050;52.222;20.916;2023-03-25T13:32:07;12.40;99.90
21778;DHT22;11050;52.222;20.916;2023-03-25T13:34:41;12.40;99.90
21778;DHT22;11050;52.222;20.916;2023-03-25T13:37:25;12.30;99.90
21778;DHT22;11050;52.222;20.916;2023-03-25T13:45:15;12.50;99.90
21778;DHT22;11050;52.222;20.916;2023-03-25T13:47:51;12.60;99.90
21778;DHT22;11050;52.222;20.916;2023-03-25T13:50:32;12.60;99.90
21778;DHT22;11050;52.222;20.916;2023-03-25T14:01:39;13.10;99.90
21778;DHT22;11050;52.222;20.916;2023-03-25T14:11:39;13.40;99.90
21778;DHT22;11050;52.222;20.916;2023-03-25T14:14:11;13.70;99.90
21778;DHT22;11050;52.222;20.916;2023-03-25T14:16:48;14.10;99.90
21778;DHT22;11050;52.222;20.916;2023-03-25T14:19:20;14.70;99.90
21778;DHT22;11050;52.222;20.916;2023-03-25T14:21:54;15.50;99.90
21778;DHT22;11050;52.222;20.916;2023-03-25T14:24:30;16.30;99.90
21778;DHT22;11050;52.222;20.916;2023-03-25T14:27:13;16.90;99.90
21778;DHT22;11050;52.222;20.916;2023-03-25T14:30:26;17.30;98.60
21778;DHT22;11050;52.222;20.916;2023-03-25T14:32:43;17.70;96.20
21778;DHT22;11050;52.222;20.916;2023-03-25T14:57:13;15.80;87.20
21778;DHT22;11050;52.222;20.916;2023-03-25T14:59:47;15.20;85.70
21778;DHT22;11050;52.222;20.916;2023-03-25T15:02:27;14.50;87.00
21778;DHT22;11050;52.222;20.916;2023-03-25T15:10:42;12.70;92.70
21778;DHT22;11050;52.222;20.916;2023-03-25T15:13:23;12.30;95.70
21778;DHT22;11050;52.222;20.916;2023-03-25T15:15:59;11.90;98.50
21778;DHT22;11050;52.222;20.916;2023-03-25T15:23:49;10.80;99.90
21778;DHT22;11050;52.222;20.916;2023-03-25T15:44:08;9.60;99.90
21778;DHT22;11050;52.222;20.916;2023-03-25T15:49:44;9.60;99.90
21778;DHT22;11050;52.222;20.916;2023-03-25T15:52:22;9.70;99.90
21778;DHT22;11050;52.222;20.916;2023-03-25T15:54:58;9.80;99.90
21778;DHT22;11050;52.222;20.916;2023-03-25T16:00:00;9.90;99.90
21778;DHT22;11050;52.222;20.916;2023-03-25T16:05:35;10.10;99.90
21778;DHT22;11050;52.222;20.916;2023-03-25T16:08:09;10.10;99.90
21778;DHT22;11050;52.222;20.916;2023-03-25T16:10:40;10.10;99.90
21778;DHT22;11050;52.222;20.916;2023-03-25T16:13:10;10.10;99.90
21778;DHT22;11050;52.222;20.916;2023-03-25T16:15:41;10.00;99.90
21778;DHT22;11050;52.222;20.916;2023-03-25T16:18:10;9.90;99.90
21778;DHT22;11050;52.222;20.916;2023-03-25T16:20:40;9.80;99.90
21778;DHT22;11050;52.222;20.916;2023-03-25T16:23:06;9.80;99.90
21778;DHT22;11050;52.222;20.916;2023-03-25T16:25:42;9.70;99.90
21778;DHT22;11050;52.222;20.916;2023-03-25T16:28:39;9.70;99.90
21778;DHT22;11050;52.222;20.916;2023-03-25T16:31:29;9.50;99.90
21778;DHT22;11050;52.222;20.916;2023-03-25T16:33:58;9.50;99.90
21778;DHT22;11050;52.222;20.916;2023-03-25T16:36:24;9.40;99.90
21778;DHT22;11050;52.222;20.916;2023-03-25T16:38:51;9.40;99.90
21778;DHT22;11050;52.222;20.916;2023-03-25T16:41:17;9.30;99.90
21778;DHT22;11050;52.222;20.916;2023-03-25T16:43:43;9.20;99.90
21778;DHT22;11050;52.222;20.916;2023-03-25T16:46:11;9.20;99.90
21778;DHT22;11050;52.222;20.916;2023-03-25T16:48:46;9.00;99.90
21778;DHT22;11050;52.222;20.916;2023-03-25T16:51:19;9.00;99.90
21778;DHT22;11050;52.222;20.916;2023-03-25T16:53:55;9.00;99.90
21778;DHT22;11050;52.222;20.916;2023-03-25T16:56:35;8.90;99.90
21778;DHT22;11050;52.222;20.916;2023-03-25T17:01:48;8.80;99.90
21778;DHT22;11050;52.222;20.916;2023-03-25T17:04:25;8.70;99.90
21778;DHT22;11050;52.222;20.916;2023-03-25T17:07:10;8.60;99.90
21778;DHT22;11050;52.222;20.916;2023-03-25T17:09:49;8.60;99.90
21778;DHT22;11050;52.222;20.916;2023-03-25T17:12:18;8.50;99.90
21778;DHT22;11050;52.222;20.916;2023-03-25T17:14:47;8.50;99.90
21778;DHT22;11050;52.222;20.916;2023-03-25T17:20:00;8.50;99.90
21778;DHT22;11050;52.222;20.916;2023-03-25T17:22:38;8.40;99.90
21778;DHT22;11050;52.222;20.916;2023-03-25T17:28:32;8.30;99.90
21778;DHT22;11050;52.222;20.916;2023-03-25T17:30:58;8.40;99.90
21778;DHT22;11050;52.222;20.916;2023-03-25T17:33:33;8.30;99.90
21778;DHT22;11050;52.222;20.916;2023-03-25T17:36:07;8.30;99.90
21778;DHT22;11050;52.222;20.916;2023-03-25T17:38:40;8.30;99.90
21778;DHT22;11050;52.222;20.916;2023-03-25T17:41:10;8.20;99.90
21778;DHT22;11050;52.222;20.916;2023-03-25T17:43:48;8.20;99.90
21778;DHT22;11050;52.222;20.916;2023-03-25T17:46:23;8.20;99.90
21778;DHT22;11050;52.222;20.916;2023-03-25T17:48:51;8.20;99.90
21778;DHT22;11050;52.222;20.916;2023-03-25T17:51:21;8.20;99.90
21778;DHT22;11050;52.222;20.916;2023-03-25T17:53:50;8.20;99.90
21778;DHT22;11050;52.222;20.916;2023-03-25T17:56:24;8.20;99.90
21778;DHT22;11050;52.222;20.916;2023-03-25T17:58:58;8.20;99.90
21778;DHT22;11050;52.222;20.916;2023-03-25T18:01:26;8.20;99.90
21778;DHT22;11050;52.222;20.916;2023-03-25T18:03:54;8.20;99.90
21778;DHT22;11050;52.222;20.916;2023-03-25T18:06:20;8.20;99.90
21778;DHT22;11050;52.222;20.916;2023-03-25T18:08:46;8.20;99.90
21778;DHT22;11050;52.222;20.916;2023-03-25T18:11:12;8.30;99.90
21778;DHT22;11050;52.222;20.916;2023-03-25T18:13:38;8.30;99.90
21778;DHT22;11050;52.222;20.916;2023-03-25T18:16:10;8.30;99.90
21778;DHT22;11050;52.222;20.916;2023-03-25T18:18:36;8.40;99.90
21778;DHT22;11050;52.222;20.916;2023-03-25T18:21:02;8.40;99.90
21778;DHT22;11050;52.222;20.916;2023-03-25T18:23:29;8.40;99.90
21778;DHT22;11050;52.222;20.916;2023-03-25T18:25:56;8.50;99.90
21778;DHT22;11050;52.222;20.916;2023-03-25T18:28:26;8.50;99.90
21778;DHT22;11050;52.222;20.916;2023-03-25T18:30:56;8.50;99.90
21778;DHT22;11050;52.222;20.916;2023-03-25T18:33:24;8.50;99.90
21778;DHT22;11050;52.222;20.916;2023-03-25T18:35:51;8.50;99.90
21778;DHT22;11050;52.222;20.916;2023-03-25T18:38:22;8.60;99.90
21778;DHT22;11050;52.222;20.916;2023-03-25T18:40:50;8.60;99.90
21778;DHT22;11050;52.222;20.916;2023-03-25T18:43:17;8.60;99.90
21778;DHT22;11050;52.222;20.916;2023-03-25T18:45:43;8.60;99.90
21778;DHT22;11050;52.222;20.916;2023-03-25T18:48:12;8.60;99.90
21778;DHT22;11050;52.222;20.916;2023-03-25T18:50:42;8.60;99.90
21778;DHT22;11050;52.222;20.916;2023-03-25T18:53:13;8.70;99.90
21778;DHT22;11050;52.222;20.916;2023-03-25T18:55:41;8.70;99.90
21778;DHT22;11050;52.222;20.916;2023-03-25T18:58:15;8.70;99.90
21778;DHT22;11050;52.222;20.916;2023-03-25T19:00:47;8.80;99.90
21778;DHT22;11050;52.222;20.916;2023-03-25T19:03:14;8.80;99.90
21778;DHT22;11050;52.222;20.916;2023-03-25T19:05:41;8.70;99.90
21778;DHT22;11050;52.222;20.916;2023-03-25T19:08:16;8.70;99.90
21778;DHT22;11050;52.222;20.916;2023-03-25T19:10:45;8.70;99.90
21778;DHT22;11050;52.222;20.916;2023-03-25T19:13:12;8.70;99.90
21778;DHT22;11050;52.222;20.916;2023-03-25T19:15:39;8.60;99.90
21778;DHT22;11050;52.222;20.916;2023-03-25T19:18:06;8.60;99.90
21778;DHT22;11050;52.222;20.916;2023-03-25T19:20:34;8.50;99.90
21778;DHT22;11050;52.222;20.916;2023-03-25T19:23:01;8.50;99.90